createdAt,value
2022-09-03T00:00:54.516Z,14.86
2022-09-03T00:05:19.472Z,14.74
2022-09-03T00:09:27.352Z,14.29
2022-09-03T00:14:03.319Z,14.29
2022-09-03T00:18:12.695Z,14.16
2022-09-03T00:22:21.091Z,14.17
2022-09-03T00:26:30.946Z,14.21
2022-09-03T00:30:31.161Z,14.08
2022-09-03T00:34:43.810Z,13.48
2022-09-03T00:38:41.059Z,13.11
2022-09-03T00:43:02.076Z,13.31
2022-09-03T00:48:08.849Z,13.80
2022-09-03T00:52:36.782Z,13.59
2022-09-03T00:57:31.479Z,13.65
2022-09-03T01:01:55.775Z,13.55
2022-09-03T01:06:22.964Z,13.34
2022-09-03T01:11:10.652Z,13.50
2022-09-03T01:15:29.964Z,13.58
2022-09-03T01:20:12.566Z,13.59
2022-09-03T01:24:51.615Z,13.51
2022-09-03T01:29:05.698Z,13.47
2022-09-03T01:33:22.301Z,13.47
2022-09-03T01:37:38.362Z,13.54
2022-09-03T01:42:23.856Z,13.53
2022-09-03T01:46:38.650Z,13.46
2022-09-03T01:51:04.353Z,13.49
2022-09-03T01:55:13.400Z,13.61
2022-09-03T01:59:33.221Z,13.52
2022-09-03T02:03:41.254Z,13.67
2022-09-03T02:07:49.113Z,13.29
2022-09-03T02:11:56.105Z,12.75
2022-09-03T02:15:58.039Z,12.88
2022-09-03T02:19:55.565Z,12.83
2022-09-03T02:23:53.174Z,12.78
2022-09-03T02:27:51.376Z,12.83
2022-09-03T02:31:48.634Z,12.84
2022-09-03T02:35:46.555Z,12.69
2022-09-03T02:39:43.959Z,12.36
2022-09-03T02:43:59.129Z,12.36
2022-09-03T02:48:00.437Z,12.58
2022-09-03T02:52:06.967Z,12.70
2022-09-03T02:56:03.964Z,12.38
2022-09-03T03:00:00.967Z,12.34
2022-09-03T03:03:58.242Z,12.14
2022-09-03T03:07:56.279Z,12.25
2022-09-03T03:11:55.642Z,12.08
2022-09-03T03:15:56.444Z,12.05
2022-09-03T03:19:53.533Z,12.58
2022-09-03T03:23:50.598Z,12.24
2022-09-03T03:27:47.655Z,12.18
2022-09-03T03:31:44.999Z,12.05
2022-09-03T03:35:42.804Z,12.16
2022-09-03T03:39:39.894Z,12.16
2022-09-03T03:43:36.956Z,12.09
2022-09-03T03:47:34.648Z,12.02
2022-09-03T03:51:32.815Z,12.22
2022-09-03T03:55:32.403Z,12.12
2022-09-03T03:59:32.216Z,12.23
2022-09-03T04:03:29.495Z,12.24
2022-09-03T04:07:27.107Z,12.52
2022-09-03T04:11:25.642Z,12.38
2022-09-03T04:15:22.666Z,12.24
2022-09-03T04:19:21.249Z,12.56
2022-09-03T04:23:18.266Z,11.68
2022-09-03T04:27:15.410Z,12.01
2022-09-03T04:31:15.372Z,11.84
2022-09-03T04:35:12.466Z,12.06
2022-09-03T04:39:09.426Z,11.75
2022-09-03T04:43:06.623Z,11.82
2022-09-03T04:47:03.923Z,11.99
2022-09-03T04:51:11.014Z,12.20
2022-09-03T04:55:10.358Z,12.31
2022-09-03T04:59:09.665Z,12.12
2022-09-03T05:03:06.695Z,12.19
2022-09-03T05:07:03.781Z,12.12
2022-09-03T05:11:01.589Z,12.64
2022-09-03T05:14:59.913Z,12.64
2022-09-03T05:18:59.856Z,13.03
2022-09-03T05:22:57.883Z,13.30
2022-09-03T05:26:55.535Z,13.53
2022-09-03T05:31:05.715Z,13.46
2022-09-03T05:35:02.986Z,13.56
2022-09-03T05:39:00.514Z,13.48
2022-09-03T05:42:59.109Z,13.83
2022-09-03T05:46:56.113Z,14.15
2022-09-03T05:51:20.075Z,14.25
2022-09-03T05:55:18.570Z,14.41
2022-09-03T05:59:17.337Z,14.43
2022-09-03T06:03:14.447Z,14.89
2022-09-03T06:07:11.479Z,15.24
2022-09-03T06:11:09.503Z,15.69
2022-09-03T06:15:07.127Z,15.55
2022-09-03T06:19:09.870Z,15.72
2022-09-03T06:23:06.876Z,16.22
2022-09-03T06:27:04.158Z,16.29
2022-09-03T06:31:03.943Z,16.29
2022-09-03T06:35:00.898Z,16.60
2022-09-03T06:38:58.613Z,16.99
2022-09-03T06:43:02.647Z,16.82
2022-09-03T06:47:01.585Z,17.31
2022-09-03T06:51:02.367Z,17.37
2022-09-03T06:54:59.312Z,17.50
2022-09-03T06:58:59.606Z,17.50
2022-09-03T07:02:59.187Z,17.71
2022-09-03T07:06:56.264Z,17.82
2022-09-03T07:10:53.359Z,18.02
2022-09-03T07:14:51.219Z,17.90
2022-09-03T07:18:49.539Z,18.27
2022-09-03T07:22:46.515Z,17.83
2022-09-03T07:26:48.930Z,17.94
2022-09-03T07:30:46.109Z,17.95
2022-09-03T07:34:43.123Z,18.30
2022-09-03T07:38:41.757Z,18.37
2022-09-03T07:42:40.225Z,18.87
2022-09-03T07:46:39.295Z,19.27
2022-09-03T07:50:39.356Z,19.53
2022-09-03T07:54:36.399Z,19.20
2022-09-03T07:58:35.636Z,19.43
2022-09-03T08:02:33.705Z,20.07
2022-09-03T08:06:34.057Z,20.71
2022-09-03T08:10:35.454Z,21.48
2022-09-03T08:14:32.493Z,21.81
2022-09-03T08:18:32.106Z,22.95
2022-09-03T08:22:30.125Z,23.41
2022-09-03T08:26:27.167Z,24.25
2022-09-03T08:30:25.408Z,24.64
2022-09-03T08:34:22.698Z,23.99
2022-09-03T08:38:19.678Z,24.88
2022-09-03T08:42:37.876Z,24.74
2022-09-03T08:47:02.215Z,24.84
2022-09-03T08:51:04.782Z,25.04
2022-09-03T08:55:27.274Z,25.34
2022-09-03T08:59:27.076Z,26.09
2022-09-03T09:04:10.702Z,26.04
2022-09-03T09:08:31.866Z,25.29
2022-09-03T09:13:45.040Z,25.44
2022-09-03T09:18:14.647Z,26.02
2022-09-03T09:22:40.851Z,26.65
2022-09-03T09:26:41.859Z,26.53
2022-09-03T09:30:38.994Z,26.14
2022-09-03T09:34:41.435Z,26.55
2022-09-03T09:38:40.088Z,27.36
2022-09-03T09:42:37.031Z,28.14
2022-09-03T09:46:41.198Z,28.20
2022-09-03T09:50:38.387Z,28.68
2022-09-03T09:54:35.675Z,28.45
2022-09-03T09:58:35.138Z,27.86
2022-09-03T10:02:36.737Z,26.83
2022-09-03T10:06:53.852Z,27.10
2022-09-03T10:10:52.045Z,27.71
2022-09-03T10:15:25.390Z,28.71
2022-09-03T10:19:44.357Z,29.82
2022-09-03T10:24:25.913Z,29.07
2022-09-03T10:28:28.463Z,27.50
2022-09-03T10:33:08.334Z,28.71
2022-09-03T10:37:39.000Z,27.96
2022-09-03T10:41:59.987Z,27.58
2022-09-03T10:46:19.514Z,27.49
2022-09-03T10:50:34.807Z,28.44
2022-09-03T10:54:57.537Z,31.01
2022-09-03T10:59:18.900Z,33.33
2022-09-03T11:03:57.527Z,32.97
2022-09-03T11:08:07.332Z,32.18
2022-09-03T11:12:22.348Z,31.94
2022-09-03T11:16:34.217Z,31.66
2022-09-03T11:20:33.104Z,32.30
2022-09-03T11:24:33.931Z,32.58
2022-09-03T11:29:06.045Z,32.66
2022-09-03T11:33:10.520Z,33.24
2022-09-03T11:37:30.488Z,33.77
2022-09-03T11:41:35.861Z,34.77
2022-09-03T11:45:32.790Z,35.90
2022-09-03T11:49:35.642Z,35.24
2022-09-03T11:53:36.910Z,35.40
2022-09-03T11:57:43.789Z,33.81
2022-09-03T12:02:09.927Z,32.17
2022-09-03T12:06:42.863Z,33.37
2022-09-03T12:11:05.726Z,35.43
2022-09-03T12:15:45.964Z,37.57
2022-09-03T12:19:54.692Z,37.62
2022-09-03T12:23:58.479Z,36.56
2022-09-03T12:27:55.632Z,36.38
2022-09-03T12:31:54.756Z,33.43
2022-09-03T12:36:00.850Z,31.45
2022-09-03T12:40:07.631Z,29.57
2022-09-03T12:44:05.624Z,29.05
2022-09-03T12:48:16.731Z,29.46
2022-09-03T12:52:36.289Z,28.31
2022-09-03T12:56:34.954Z,28.05
2022-09-03T13:00:36.395Z,28.61
2022-09-03T13:04:37.697Z,28.56
2022-09-03T13:08:45.285Z,29.91
2022-09-03T13:12:53.382Z,30.50
2022-09-03T13:17:07.017Z,30.36
2022-09-03T13:21:37.257Z,30.98
2022-09-03T13:26:06.166Z,29.29
2022-09-03T13:30:38.182Z,29.13
2022-09-03T13:34:46.343Z,29.17
2022-09-03T13:39:06.495Z,29.64
2022-09-03T13:43:40.293Z,28.59
2022-09-03T13:48:17.116Z,28.61
2022-09-03T13:52:26.733Z,28.73
2022-09-03T13:57:02.975Z,29.01
2022-09-03T14:01:01.312Z,28.61
2022-09-03T14:04:58.303Z,27.77
2022-09-03T14:09:31.236Z,27.28
2022-09-03T14:14:00.994Z,27.67
2022-09-03T14:18:42.100Z,27.89
2022-09-03T14:23:00.397Z,27.30
2022-09-03T14:27:03.421Z,27.17
2022-09-03T14:31:28.650Z,26.93
2022-09-03T14:35:40.546Z,26.15
2022-09-03T14:40:06.081Z,26.14
2022-09-03T14:44:20.958Z,25.67
2022-09-03T14:49:09.687Z,24.42
2022-09-03T14:53:29.569Z,23.85
2022-09-03T14:58:17.746Z,23.62
2022-09-03T15:03:11.869Z,22.86
2022-09-03T15:07:37.157Z,22.55
2022-09-03T15:11:48.412Z,22.79
2022-09-03T15:16:19.400Z,22.50
2022-09-03T15:20:53.762Z,22.51
2022-09-03T15:25:26.381Z,22.77
2022-09-03T15:29:47.212Z,22.66
2022-09-03T15:34:12.693Z,23.15
2022-09-03T15:38:28.938Z,23.52
2022-09-03T15:42:29.128Z,23.83
2022-09-03T15:46:51.945Z,23.81
2022-09-03T15:51:20.905Z,24.14
2022-09-03T15:55:41.029Z,24.00
2022-09-03T16:00:12.857Z,23.79
2022-09-03T16:04:14.490Z,23.91
2022-09-03T16:08:41.856Z,23.70
2022-09-03T16:13:19.618Z,24.09
2022-09-03T16:17:39.352Z,23.71
2022-09-03T16:22:08.096Z,23.68
2022-09-03T16:26:19.100Z,23.83
2022-09-03T16:30:45.059Z,23.52
2022-09-03T16:35:03.296Z,23.56
2022-09-03T16:39:35.859Z,23.44
2022-09-03T16:44:20.049Z,23.59
2022-09-03T16:48:50.226Z,23.41
2022-09-03T16:53:05.866Z,23.24
2022-09-03T16:57:28.674Z,23.20
2022-09-03T17:02:36.980Z,23.24
2022-09-03T17:06:51.497Z,23.10
2022-09-03T17:11:46.002Z,23.10
2022-09-03T17:16:25.027Z,22.80
2022-09-03T17:20:38.528Z,22.84
2022-09-03T17:24:53.047Z,22.62
2022-09-03T17:29:09.864Z,22.47
2022-09-03T17:34:17.761Z,22.13
2022-09-03T17:39:12.111Z,21.86
2022-09-03T17:43:54.133Z,21.42
2022-09-03T17:48:41.228Z,21.14
2022-09-03T17:52:55.732Z,21.10
2022-09-03T17:57:16.078Z,21.12
2022-09-03T18:01:22.058Z,20.64
2022-09-03T18:05:32.981Z,21.03
2022-09-03T18:09:50.292Z,21.22
2022-09-03T18:14:09.389Z,21.31
2022-09-03T18:18:26.198Z,21.31
2022-09-03T18:22:50.766Z,21.16
2022-09-03T18:27:51.236Z,21.17
2022-09-03T18:32:06.746Z,20.97
2022-09-03T18:36:24.147Z,20.79
2022-09-03T18:40:55.135Z,20.82
2022-09-03T18:45:48.359Z,20.74
2022-09-03T18:50:31.241Z,20.62
2022-09-03T18:55:08.723Z,20.76
2022-09-03T18:59:55.936Z,20.83
2022-09-03T19:04:27.956Z,20.93
2022-09-03T19:08:57.088Z,20.75
2022-09-03T19:13:50.145Z,20.89
2022-09-03T19:18:28.828Z,20.53
2022-09-03T19:22:54.893Z,20.94
2022-09-03T19:27:54.316Z,20.85
2022-09-03T19:32:22.725Z,20.70
2022-09-03T19:37:18.272Z,20.70
2022-09-03T19:41:50.340Z,20.66
2022-09-03T19:46:18.930Z,20.70
2022-09-03T19:50:47.915Z,19.96
2022-09-03T19:55:08.987Z,20.12
2022-09-03T19:59:39.429Z,20.33
2022-09-03T20:03:55.667Z,20.12
2022-09-03T20:08:15.692Z,20.19
2022-09-03T20:12:17.428Z,20.40
2022-09-03T20:16:44.575Z,20.36
2022-09-03T20:20:41.905Z,20.21
2022-09-03T20:24:56.715Z,19.99
2022-09-03T20:29:50.260Z,19.64
2022-09-03T20:34:24.957Z,20.01
2022-09-03T20:38:53.864Z,20.00
2022-09-03T20:43:19.379Z,19.85
2022-09-03T20:48:02.560Z,19.87
2022-09-03T20:52:08.558Z,19.85
2022-09-03T20:56:37.483Z,19.77
2022-09-03T21:00:52.184Z,19.40
2022-09-03T21:05:19.220Z,19.57
2022-09-03T21:10:18.262Z,19.47
2022-09-03T21:15:20.132Z,19.65
2022-09-03T21:19:48.685Z,19.62
2022-09-03T21:23:55.650Z,19.42
2022-09-03T21:28:22.042Z,19.62
2022-09-03T21:33:09.447Z,19.59
2022-09-03T21:37:12.278Z,19.49
2022-09-03T21:41:29.399Z,19.51
2022-09-03T21:45:43.415Z,19.18
2022-09-03T21:50:17.219Z,19.19
2022-09-03T21:54:29.113Z,19.12
2022-09-03T21:58:45.508Z,19.08
2022-09-03T22:02:42.561Z,18.91
2022-09-03T22:06:50.645Z,19.02
2022-09-03T22:11:15.823Z,18.74
2022-09-03T22:15:14.927Z,18.57
2022-09-03T22:19:12.101Z,18.70
2022-09-03T22:23:26.808Z,18.67
2022-09-03T22:27:36.215Z,18.44
2022-09-03T22:32:11.627Z,18.39
2022-09-03T22:36:31.970Z,18.05
2022-09-03T22:40:34.521Z,18.16
2022-09-03T22:44:58.422Z,18.18
2022-09-03T22:49:14.124Z,18.16
2022-09-03T22:53:54.474Z,18.34
2022-09-03T22:58:11.930Z,18.01
2022-09-03T23:02:14.208Z,18.57
2022-09-03T23:06:38.615Z,19.00
2022-09-03T23:11:04.015Z,18.98
2022-09-03T23:15:06.915Z,18.77
2022-09-03T23:23:25.761Z,19.13
2022-09-03T23:27:34.692Z,19.09
2022-09-03T23:31:31.902Z,19.04
2022-09-03T23:35:43.980Z,19.07
2022-09-03T23:40:02.623Z,19.16
2022-09-03T23:44:47.605Z,19.08
2022-09-03T23:49:26.818Z,19.04
2022-09-03T23:53:39.123Z,19.12
2022-09-03T23:57:59.668Z,19.23
